sensor_id;sensor_type;location;lat;lon;timestamp;temperature;humidity
1367;DHT22;16877;48.810;9.282;2023-07-29T00:02:22;25.80;70.60
1367;DHT22;16877;48.810;9.282;2023-07-29T00:05:05;25.80;70.80
1367;DHT22;16877;48.810;9.282;2023-07-29T00:07:33;25.70;70.40
1367;DHT22;16877;48.810;9.282;2023-07-29T00:10:16;25.70;70.30
1367;DHT22;16877;48.810;9.282;2023-07-29T00:13:00;25.80;70.50
1367;DHT22;16877;48.810;9.282;2023-07-29T00:15:30;25.70;70.40
1367;DHT22;16877;48.810;9.282;2023-07-29T00:18:13;25.80;70.10
1367;DHT22;16877;48.810;9.282;2023-07-29T00:20:55;25.80;70.30
1367;DHT22;16877;48.810;9.282;2023-07-29T00:23:26;25.80;70.30
1367;DHT22;16877;48.810;9.282;2023-07-29T00:26:08;25.80;70.50
1367;DHT22;16877;48.810;9.282;2023-07-29T00:28:52;25.70;70.30
1367;DHT22;16877;48.810;9.282;2023-07-29T00:31:21;25.70;70.80
1367;DHT22;16877;48.810;9.282;2023-07-29T00:33:50;25.80;70.70
1367;DHT22;16877;48.810;9.282;2023-07-29T00:36:23;25.80;70.50
1367;DHT22;16877;48.810;9.282;2023-07-29T00:38:56;25.70;70.50
1367;DHT22;16877;48.810;9.282;2023-07-29T00:41:39;25.80;70.60
1367;DHT22;16877;48.810;9.282;2023-07-29T00:44:10;25.80;70.50
1367;DHT22;16877;48.810;9.282;2023-07-29T00:46:40;25.80;70.60
1367;DHT22;16877;48.810;9.282;2023-07-29T00:49:23;25.80;70.50
1367;DHT22;16877;48.810;9.282;2023-07-29T00:51:52;25.80;70.50
1367;DHT22;16877;48.810;9.282;2023-07-29T00:54:34;25.70;70.10
1367;DHT22;16877;48.810;9.282;2023-07-29T00:57:17;25.70;70.10
1367;DHT22;16877;48.810;9.282;2023-07-29T01:00:03;25.70;70.20
1367;DHT22;16877;48.810;9.282;2023-07-29T01:02:32;25.70;70.10
1367;DHT22;16877;48.810;9.282;2023-07-29T01:05:02;25.70;70.30
1367;DHT22;16877;48.810;9.282;2023-07-29T01:07:36;25.80;70.70
1367;DHT22;16877;48.810;9.282;2023-07-29T01:10:29;25.80;70.70
1367;DHT22;16877;48.810;9.282;2023-07-29T01:13:04;25.70;70.90
1367;DHT22;16877;48.810;9.282;2023-07-29T01:15:53;25.70;70.50
1367;DHT22;16877;48.810;9.282;2023-07-29T01:18:38;25.70;70.50
1367;DHT22;16877;48.810;9.282;2023-07-29T01:21:22;25.70;70.20
1367;DHT22;16877;48.810;9.282;2023-07-29T01:24:07;25.70;70.30
1367;DHT22;16877;48.810;9.282;2023-07-29T01:26:46;25.70;70.40
1367;DHT22;16877;48.810;9.282;2023-07-29T01:29:28;25.70;70.30
1367;DHT22;16877;48.810;9.282;2023-07-29T01:31:59;25.70;70.30
1367;DHT22;16877;48.810;9.282;2023-07-29T01:34:32;25.60;70.40
1367;DHT22;16877;48.810;9.282;2023-07-29T01:37:21;25.60;70.20
1367;DHT22;16877;48.810;9.282;2023-07-29T01:39:56;25.70;70.30
1367;DHT22;16877;48.810;9.282;2023-07-29T01:42:39;25.70;70.30
1367;DHT22;16877;48.810;9.282;2023-07-29T01:45:23;25.60;70.10
1367;DHT22;16877;48.810;9.282;2023-07-29T01:47:51;25.60;70.20
1367;DHT22;16877;48.810;9.282;2023-07-29T01:50:34;25.60;70.30
1367;DHT22;16877;48.810;9.282;2023-07-29T01:53:17;25.60;70.10
1367;DHT22;16877;48.810;9.282;2023-07-29T01:56:02;25.40;70.10
1367;DHT22;16877;48.810;9.282;2023-07-29T01:58:44;25.50;70.30
1367;DHT22;16877;48.810;9.282;2023-07-29T02:01:26;25.50;70.20
1367;DHT22;16877;48.810;9.282;2023-07-29T02:04:09;25.60;70.30
1367;DHT22;16877;48.810;9.282;2023-07-29T02:06:51;25.50;70.30
1367;DHT22;16877;48.810;9.282;2023-07-29T02:09:33;25.50;70.50
1367;DHT22;16877;48.810;9.282;2023-07-29T02:12:17;25.50;70.10
1367;DHT22;16877;48.810;9.282;2023-07-29T02:15:00;25.50;69.70
1367;DHT22;16877;48.810;9.282;2023-07-29T02:17:42;25.40;69.80
1367;DHT22;16877;48.810;9.282;2023-07-29T02:20:24;25.30;69.60
1367;DHT22;16877;48.810;9.282;2023-07-29T02:22:52;25.20;69.30
1367;DHT22;16877;48.810;9.282;2023-07-29T02:25:20;25.30;69.50
1367;DHT22;16877;48.810;9.282;2023-07-29T02:28:04;25.30;69.70
1367;DHT22;16877;48.810;9.282;2023-07-29T02:30:47;25.40;70.20
1367;DHT22;16877;48.810;9.282;2023-07-29T02:33:29;25.50;70.00
1367;DHT22;16877;48.810;9.282;2023-07-29T02:36:11;25.50;70.00
1367;DHT22;16877;48.810;9.282;2023-07-29T02:38:40;25.50;70.00
1367;DHT22;16877;48.810;9.282;2023-07-29T02:41:23;25.50;70.00
1367;DHT22;16877;48.810;9.282;2023-07-29T02:44:10;25.50;70.00
1367;DHT22;16877;48.810;9.282;2023-07-29T02:46:52;25.50;70.10
1367;DHT22;16877;48.810;9.282;2023-07-29T02:49:34;25.50;70.10
1367;DHT22;16877;48.810;9.282;2023-07-29T02:52:16;25.60;70.20
1367;DHT22;16877;48.810;9.282;2023-07-29T02:54:59;25.50;70.20
1367;DHT22;16877;48.810;9.282;2023-07-29T02:57:41;25.50;70.10
1367;DHT22;16877;48.810;9.282;2023-07-29T03:00:25;25.50;70.20
1367;DHT22;16877;48.810;9.282;2023-07-29T03:02:55;25.50;70.10
1367;DHT22;16877;48.810;9.282;2023-07-29T03:05:23;25.50;70.30
1367;DHT22;16877;48.810;9.282;2023-07-29T03:08:05;25.50;70.10
1367;DHT22;16877;48.810;9.282;2023-07-29T03:10:35;25.60;70.20
1367;DHT22;16877;48.810;9.282;2023-07-29T03:13:18;25.50;70.00
1367;DHT22;16877;48.810;9.282;2023-07-29T03:16:07;25.50;69.70
1367;DHT22;16877;48.810;9.282;2023-07-29T03:18:36;25.50;69.90
1367;DHT22;16877;48.810;9.282;2023-07-29T03:21:19;25.50;69.80
1367;DHT22;16877;48.810;9.282;2023-07-29T03:24:02;25.50;69.70
1367;DHT22;16877;48.810;9.282;2023-07-29T03:26:30;25.50;69.90
1367;DHT22;16877;48.810;9.282;2023-07-29T03:29:12;25.50;69.60
1367;DHT22;16877;48.810;9.282;2023-07-29T03:31:56;25.50;69.80
1367;DHT22;16877;48.810;9.282;2023-07-29T03:34:38;25.30;69.50
1367;DHT22;16877;48.810;9.282;2023-07-29T03:37:21;25.30;69.60
1367;DHT22;16877;48.810;9.282;2023-07-29T03:40:04;25.30;69.80
1367;DHT22;16877;48.810;9.282;2023-07-29T03:42:33;25.30;69.90
1367;DHT22;16877;48.810;9.282;2023-07-29T03:45:15;25.30;69.50
1367;DHT22;16877;48.810;9.282;2023-07-29T03:47:45;25.40;69.80
1367;DHT22;16877;48.810;9.282;2023-07-29T03:50:28;25.40;69.80
1367;DHT22;16877;48.810;9.282;2023-07-29T03:52:57;25.40;69.90
1367;DHT22;16877;48.810;9.282;2023-07-29T03:55:40;25.40;69.90
1367;DHT22;16877;48.810;9.282;2023-07-29T03:58:13;25.40;69.90
1367;DHT22;16877;48.810;9.282;2023-07-29T04:00:55;25.40;69.50
1367;DHT22;16877;48.810;9.282;2023-07-29T04:03:39;25.30;69.90
1367;DHT22;16877;48.810;9.282;2023-07-29T04:06:21;25.40;70.00
1367;DHT22;16877;48.810;9.282;2023-07-29T04:09:04;25.40;69.90
1367;DHT22;16877;48.810;9.282;2023-07-29T04:11:46;25.40;69.90
1367;DHT22;16877;48.810;9.282;2023-07-29T04:14:28;25.50;69.90
1367;DHT22;16877;48.810;9.282;2023-07-29T04:17:10;25.50;70.20
1367;DHT22;16877;48.810;9.282;2023-07-29T04:19:42;25.40;70.30
1367;DHT22;16877;48.810;9.282;2023-07-29T04:22:19;25.40;70.50
1367;DHT22;16877;48.810;9.282;2023-07-29T04:24:48;25.40;70.80
1367;DHT22;16877;48.810;9.282;2023-07-29T04:27:17;25.30;71.20
1367;DHT22;16877;48.810;9.282;2023-07-29T04:29:52;25.20;71.30
1367;DHT22;16877;48.810;9.282;2023-07-29T04:32:34;25.10;71.40
1367;DHT22;16877;48.810;9.282;2023-07-29T04:35:19;25.10;71.50
1367;DHT22;16877;48.810;9.282;2023-07-29T04:38:01;25.10;71.50
1367;DHT22;16877;48.810;9.282;2023-07-29T04:40:48;25.10;71.50
1367;DHT22;16877;48.810;9.282;2023-07-29T04:43:31;25.00;71.80
1367;DHT22;16877;48.810;9.282;2023-07-29T04:46:14;24.90;72.10
1367;DHT22;16877;48.810;9.282;2023-07-29T04:48:42;24.90;73.20
1367;DHT22;16877;48.810;9.282;2023-07-29T04:51:12;24.90;72.50
1367;DHT22;16877;48.810;9.282;2023-07-29T04:53:40;25.00;72.80
1367;DHT22;16877;48.810;9.282;2023-07-29T04:56:07;25.00;72.70
1367;DHT22;16877;48.810;9.282;2023-07-29T04:58:34;24.80;73.00
1367;DHT22;16877;48.810;9.282;2023-07-29T05:01:02;24.80;73.50
1367;DHT22;16877;48.810;9.282;2023-07-29T05:03:30;24.70;73.70
1367;DHT22;16877;48.810;9.282;2023-07-29T05:05:58;24.70;73.90
1367;DHT22;16877;48.810;9.282;2023-07-29T05:08:35;24.80;74.00
1367;DHT22;16877;48.810;9.282;2023-07-29T05:11:03;24.80;73.90
1367;DHT22;16877;48.810;9.282;2023-07-29T05:13:46;24.90;73.70
1367;DHT22;16877;48.810;9.282;2023-07-29T05:16:13;24.90;73.80
1367;DHT22;16877;48.810;9.282;2023-07-29T05:18:41;24.80;73.70
1367;DHT22;16877;48.810;9.282;2023-07-29T05:21:12;24.80;74.00
1367;DHT22;16877;48.810;9.282;2023-07-29T05:23:42;24.80;74.20
1367;DHT22;16877;48.810;9.282;2023-07-29T05:26:09;24.80;74.40
1367;DHT22;16877;48.810;9.282;2023-07-29T05:28:37;24.80;74.60
1367;DHT22;16877;48.810;9.282;2023-07-29T05:31:04;24.80;74.80
1367;DHT22;16877;48.810;9.282;2023-07-29T05:33:31;24.70;74.30
1367;DHT22;16877;48.810;9.282;2023-07-29T05:35:59;24.60;74.50
1367;DHT22;16877;48.810;9.282;2023-07-29T05:38:26;24.50;74.50
1367;DHT22;16877;48.810;9.282;2023-07-29T05:40:55;24.50;74.70
1367;DHT22;16877;48.810;9.282;2023-07-29T05:43:24;24.40;74.90
1367;DHT22;16877;48.810;9.282;2023-07-29T05:45:51;24.20;74.70
1367;DHT22;16877;48.810;9.282;2023-07-29T05:48:29;24.20;75.20
1367;DHT22;16877;48.810;9.282;2023-07-29T05:50:59;24.10;75.40
1367;DHT22;16877;48.810;9.282;2023-07-29T05:53:41;24.20;76.70
1367;DHT22;16877;48.810;9.282;2023-07-29T05:56:10;24.20;75.80
1367;DHT22;16877;48.810;9.282;2023-07-29T05:58:52;24.20;76.00
1367;DHT22;16877;48.810;9.282;2023-07-29T06:01:20;24.10;76.30
1367;DHT22;16877;48.810;9.282;2023-07-29T06:03:48;24.30;76.50
1367;DHT22;16877;48.810;9.282;2023-07-29T06:06:17;24.50;76.20
1367;DHT22;16877;48.810;9.282;2023-07-29T06:08:45;24.50;75.70
1367;DHT22;16877;48.810;9.282;2023-07-29T06:11:14;24.70;75.60
1367;DHT22;16877;48.810;9.282;2023-07-29T06:13:41;24.80;75.00
1367;DHT22;16877;48.810;9.282;2023-07-29T06:16:20;24.80;75.00
1367;DHT22;16877;48.810;9.282;2023-07-29T06:19:02;24.80;74.40
1367;DHT22;16877;48.810;9.282;2023-07-29T06:21:30;24.80;74.20
1367;DHT22;16877;48.810;9.282;2023-07-29T06:23:58;24.80;74.50
1367;DHT22;16877;48.810;9.282;2023-07-29T06:26:27;24.80;74.50
1367;DHT22;16877;48.810;9.282;2023-07-29T06:28:59;25.00;74.40
1367;DHT22;16877;48.810;9.282;2023-07-29T06:31:28;25.30;73.60
1367;DHT22;16877;48.810;9.282;2023-07-29T06:33:58;25.60;73.20
1367;DHT22;16877;48.810;9.282;2023-07-29T06:36:32;25.80;72.90
1367;DHT22;16877;48.810;9.282;2023-07-29T06:39:00;26.00;72.60
1367;DHT22;16877;48.810;9.282;2023-07-29T06:41:37;26.00;72.20
1367;DHT22;16877;48.810;9.282;2023-07-29T06:44:05;26.10;72.00
1367;DHT22;16877;48.810;9.282;2023-07-29T06:46:33;26.20;71.80
1367;DHT22;16877;48.810;9.282;2023-07-29T06:49:01;26.20;71.50
1367;DHT22;16877;48.810;9.282;2023-07-29T06:51:29;26.20;71.30
1367;DHT22;16877;48.810;9.282;2023-07-29T06:53:59;26.20;71.10
1367;DHT22;16877;48.810;9.282;2023-07-29T06:56:27;26.30;71.30
1367;DHT22;16877;48.810;9.282;2023-07-29T06:58:56;26.20;71.40
1367;DHT22;16877;48.810;9.282;2023-07-29T07:01:24;26.20;71.50
1367;DHT22;16877;48.810;9.282;2023-07-29T07:03:51;26.20;71.50
1367;DHT22;16877;48.810;9.282;2023-07-29T07:06:20;26.20;71.50
1367;DHT22;16877;48.810;9.282;2023-07-29T07:08:47;26.10;71.50
1367;DHT22;16877;48.810;9.282;2023-07-29T07:11:15;26.00;71.60
1367;DHT22;16877;48.810;9.282;2023-07-29T07:13:42;26.00;71.80
1367;DHT22;16877;48.810;9.282;2023-07-29T07:16:11;26.00;72.10
1367;DHT22;16877;48.810;9.282;2023-07-29T07:18:49;26.00;72.50
1367;DHT22;16877;48.810;9.282;2023-07-29T07:21:17;25.90;72.90
1367;DHT22;16877;48.810;9.282;2023-07-29T07:23:59;25.80;73.30
1367;DHT22;16877;48.810;9.282;2023-07-29T07:26:28;25.70;73.70
1367;DHT22;16877;48.810;9.282;2023-07-29T07:28:58;25.80;73.70
1367;DHT22;16877;48.810;9.282;2023-07-29T07:31:28;25.80;73.80
1367;DHT22;16877;48.810;9.282;2023-07-29T07:33:56;25.90;74.00
1367;DHT22;16877;48.810;9.282;2023-07-29T07:36:23;25.90;73.90
1367;DHT22;16877;48.810;9.282;2023-07-29T07:38:50;26.00;73.90
1367;DHT22;16877;48.810;9.282;2023-07-29T07:41:19;26.00;73.80
1367;DHT22;16877;48.810;9.282;2023-07-29T07:43:47;26.00;74.00
1367;DHT22;16877;48.810;9.282;2023-07-29T07:46:15;26.10;73.90
1367;DHT22;16877;48.810;9.282;2023-07-29T07:48:45;26.20;73.80
1367;DHT22;16877;48.810;9.282;2023-07-29T07:51:27;26.20;73.60
1367;DHT22;16877;48.810;9.282;2023-07-29T07:53:56;26.30;73.60
1367;DHT22;16877;48.810;9.282;2023-07-29T07:56:34;26.40;73.60
1367;DHT22;16877;48.810;9.282;2023-07-29T07:59:11;26.40;73.50
1367;DHT22;16877;48.810;9.282;2023-07-29T08:01:48;26.50;73.30
1367;DHT22;16877;48.810;9.282;2023-07-29T08:04:33;26.60;73.20
1367;DHT22;16877;48.810;9.282;2023-07-29T08:07:00;26.60;72.90
1367;DHT22;16877;48.810;9.282;2023-07-29T08:09:27;26.70;73.00
1367;DHT22;16877;48.810;9.282;2023-07-29T08:11:55;26.70;72.50
1367;DHT22;16877;48.810;9.282;2023-07-29T08:14:27;26.80;72.50
1367;DHT22;16877;48.810;9.282;2023-07-29T08:16:54;26.80;72.30
1367;DHT22;16877;48.810;9.282;2023-07-29T08:19:21;26.90;72.10
1367;DHT22;16877;48.810;9.282;2023-07-29T08:21:50;27.00;71.70
1367;DHT22;16877;48.810;9.282;2023-07-29T08:24:18;27.10;71.60
1367;DHT22;16877;48.810;9.282;2023-07-29T08:26:45;27.30;71.50
1367;DHT22;16877;48.810;9.282;2023-07-29T08:29:28;27.40;71.30
1367;DHT22;16877;48.810;9.282;2023-07-29T08:31:59;27.40;71.30
1367;DHT22;16877;48.810;9.282;2023-07-29T08:34:27;27.60;71.30
1367;DHT22;16877;48.810;9.282;2023-07-29T08:36:56;27.60;71.00
1367;DHT22;16877;48.810;9.282;2023-07-29T08:39:24;27.70;70.60
1367;DHT22;16877;48.810;9.282;2023-07-29T08:41:59;27.80;70.20
1367;DHT22;16877;48.810;9.282;2023-07-29T08:44:34;27.90;70.10
1367;DHT22;16877;48.810;9.282;2023-07-29T08:47:03;28.10;69.80
1367;DHT22;16877;48.810;9.282;2023-07-29T08:49:31;28.20;69.30
1367;DHT22;16877;48.810;9.282;2023-07-29T08:52:01;28.30;68.90
1367;DHT22;16877;48.810;9.282;2023-07-29T08:54:29;28.40;68.60
1367;DHT22;16877;48.810;9.282;2023-07-29T08:56:56;28.50;68.50
1367;DHT22;16877;48.810;9.282;2023-07-29T08:59:26;28.70;68.40
1367;DHT22;16877;48.810;9.282;2023-07-29T09:01:54;29.00;68.10
1367;DHT22;16877;48.810;9.282;2023-07-29T09:04:23;29.30;67.70
1367;DHT22;16877;48.810;9.282;2023-07-29T09:06:51;29.70;67.20
1367;DHT22;16877;48.810;9.282;2023-07-29T09:09:21;29.80;66.60
1367;DHT22;16877;48.810;9.282;2023-07-29T09:11:48;30.10;65.70
1367;DHT22;16877;48.810;9.282;2023-07-29T09:14:16;30.20;65.20
1367;DHT22;16877;48.810;9.282;2023-07-29T09:16:44;30.40;65.20
1367;DHT22;16877;48.810;9.282;2023-07-29T09:19:13;30.40;64.20
1367;DHT22;16877;48.810;9.282;2023-07-29T09:21:41;30.50;63.40
1367;DHT22;16877;48.810;9.282;2023-07-29T09:24:09;30.40;62.80
1367;DHT22;16877;48.810;9.282;2023-07-29T09:26:41;30.30;62.60
1367;DHT22;16877;48.810;9.282;2023-07-29T09:29:22;30.30;62.90
1367;DHT22;16877;48.810;9.282;2023-07-29T09:31:50;30.30;62.70
1367;DHT22;16877;48.810;9.282;2023-07-29T09:34:18;30.70;63.00
1367;DHT22;16877;48.810;9.282;2023-07-29T09:36:45;31.10;63.10
1367;DHT22;16877;48.810;9.282;2023-07-29T09:39:13;31.40;62.10
1367;DHT22;16877;48.810;9.282;2023-07-29T09:41:47;31.60;61.20
1367;DHT22;16877;48.810;9.282;2023-07-29T09:44:14;31.80;60.50
1367;DHT22;16877;48.810;9.282;2023-07-29T09:46:46;32.10;60.10
1367;DHT22;16877;48.810;9.282;2023-07-29T09:49:13;32.00;59.90
1367;DHT22;16877;48.810;9.282;2023-07-29T09:51:41;32.00;59.60
1367;DHT22;16877;48.810;9.282;2023-07-29T09:54:11;32.10;59.70
1367;DHT22;16877;48.810;9.282;2023-07-29T09:56:44;32.00;59.70
1367;DHT22;16877;48.810;9.282;2023-07-29T09:59:11;32.00;59.40
1367;DHT22;16877;48.810;9.282;2023-07-29T10:01:39;32.20;59.30
1367;DHT22;16877;48.810;9.282;2023-07-29T10:04:08;32.40;58.90
1367;DHT22;16877;48.810;9.282;2023-07-29T10:06:37;32.40;58.80
1367;DHT22;16877;48.810;9.282;2023-07-29T10:09:05;32.70;58.40
1367;DHT22;16877;48.810;9.282;2023-07-29T10:11:46;33.00;57.80
1367;DHT22;16877;48.810;9.282;2023-07-29T10:14:14;33.40;57.30
1367;DHT22;16877;48.810;9.282;2023-07-29T10:16:42;33.70;56.20
1367;DHT22;16877;48.810;9.282;2023-07-29T10:19:11;34.00;55.00
1367;DHT22;16877;48.810;9.282;2023-07-29T10:21:42;34.20;54.30
1367;DHT22;16877;48.810;9.282;2023-07-29T10:24:15;34.20;53.70
1367;DHT22;16877;48.810;9.282;2023-07-29T10:26:58;34.20;53.20
1367;DHT22;16877;48.810;9.282;2023-07-29T10:29:30;33.90;53.20
1367;DHT22;16877;48.810;9.282;2023-07-29T10:31:58;34.00;53.10
1367;DHT22;16877;48.810;9.282;2023-07-29T10:34:28;33.70;52.90
1367;DHT22;16877;48.810;9.282;2023-07-29T10:37:11;33.30;53.30
1367;DHT22;16877;48.810;9.282;2023-07-29T10:39:52;33.10;54.00
1367;DHT22;16877;48.810;9.282;2023-07-29T10:42:23;32.90;54.40
1367;DHT22;16877;48.810;9.282;2023-07-29T10:44:52;32.80;54.80
1367;DHT22;16877;48.810;9.282;2023-07-29T10:47:22;32.70;55.30
1367;DHT22;16877;48.810;9.282;2023-07-29T10:49:52;32.60;55.60
1367;DHT22;16877;48.810;9.282;2023-07-29T10:52:40;32.70;55.90
1367;DHT22;16877;48.810;9.282;2023-07-29T10:55:24;32.70;56.00
1367;DHT22;16877;48.810;9.282;2023-07-29T10:58:08;32.60;56.00
1367;DHT22;16877;48.810;9.282;2023-07-29T11:00:36;32.70;55.90
1367;DHT22;16877;48.810;9.282;2023-07-29T11:03:06;32.70;55.60
1367;DHT22;16877;48.810;9.282;2023-07-29T11:05:49;32.90;55.30
1367;DHT22;16877;48.810;9.282;2023-07-29T11:08:27;33.30;55.20
1367;DHT22;16877;48.810;9.282;2023-07-29T11:11:14;33.70;54.70
1367;DHT22;16877;48.810;9.282;2023-07-29T11:13:44;33.80;54.30
1367;DHT22;16877;48.810;9.282;2023-07-29T11:16:15;34.30;53.60
1367;DHT22;16877;48.810;9.282;2023-07-29T11:18:44;34.20;53.60
1367;DHT22;16877;48.810;9.282;2023-07-29T11:21:14;34.50;53.40
1367;DHT22;16877;48.810;9.282;2023-07-29T11:23:41;34.50;53.10
1367;DHT22;16877;48.810;9.282;2023-07-29T11:26:10;34.60;53.20
1367;DHT22;16877;48.810;9.282;2023-07-29T11:28:39;34.70;53.20
1367;DHT22;16877;48.810;9.282;2023-07-29T11:31:10;34.80;52.60
1367;DHT22;16877;48.810;9.282;2023-07-29T11:33:39;34.70;52.50
1367;DHT22;16877;48.810;9.282;2023-07-29T11:36:17;34.70;52.40
1367;DHT22;16877;48.810;9.282;2023-07-29T11:38:45;34.70;52.10
1367;DHT22;16877;48.810;9.282;2023-07-29T11:41:12;34.60;52.10
1367;DHT22;16877;48.810;9.282;2023-07-29T11:43:40;34.60;52.10
1367;DHT22;16877;48.810;9.282;2023-07-29T11:46:07;34.50;52.00
1367;DHT22;16877;48.810;9.282;2023-07-29T11:48:40;34.60;52.10
1367;DHT22;16877;48.810;9.282;2023-07-29T11:51:12;34.50;51.80
1367;DHT22;16877;48.810;9.282;2023-07-29T11:53:39;34.50;51.40
1367;DHT22;16877;48.810;9.282;2023-07-29T11:56:09;34.50;51.50
1367;DHT22;16877;48.810;9.282;2023-07-29T11:58:36;34.50;51.30
1367;DHT22;16877;48.810;9.282;2023-07-29T12:01:05;34.70;51.30
1367;DHT22;16877;48.810;9.282;2023-07-29T12:03:36;34.90;51.00
1367;DHT22;16877;48.810;9.282;2023-07-29T12:06:04;35.30;50.80
1367;DHT22;16877;48.810;9.282;2023-07-29T12:08:31;35.60;50.20
1367;DHT22;16877;48.810;9.282;2023-07-29T12:11:14;35.80;49.70
1367;DHT22;16877;48.810;9.282;2023-07-29T12:13:42;36.00;49.70
1367;DHT22;16877;48.810;9.282;2023-07-29T12:16:16;36.30;49.30
1367;DHT22;16877;48.810;9.282;2023-07-29T12:18:45;36.50;49.10
1367;DHT22;16877;48.810;9.282;2023-07-29T12:21:14;36.90;49.00
1367;DHT22;16877;48.810;9.282;2023-07-29T12:23:42;37.10;48.70
1367;DHT22;16877;48.810;9.282;2023-07-29T12:26:10;37.20;48.50
1367;DHT22;16877;48.810;9.282;2023-07-29T12:28:37;37.60;48.20
1367;DHT22;16877;48.810;9.282;2023-07-29T12:31:07;37.60;47.80
1367;DHT22;16877;48.810;9.282;2023-07-29T12:33:36;37.80;47.60
1367;DHT22;16877;48.810;9.282;2023-07-29T12:36:06;38.00;47.50
1367;DHT22;16877;48.810;9.282;2023-07-29T12:38:36;38.40;47.20
1367;DHT22;16877;48.810;9.282;2023-07-29T12:41:04;38.30;46.70
1367;DHT22;16877;48.810;9.282;2023-07-29T12:43:36;38.60;46.60
1367;DHT22;16877;48.810;9.282;2023-07-29T12:46:04;38.50;46.30
1367;DHT22;16877;48.810;9.282;2023-07-29T12:48:33;38.50;46.20
1367;DHT22;16877;48.810;9.282;2023-07-29T12:51:00;38.60;45.50
1367;DHT22;16877;48.810;9.282;2023-07-29T12:53:29;38.20;45.50
1367;DHT22;16877;48.810;9.282;2023-07-29T12:55:57;38.20;44.00
1367;DHT22;16877;48.810;9.282;2023-07-29T12:58:24;38.50;43.40
1367;DHT22;16877;48.810;9.282;2023-07-29T13:00:51;38.60;42.70
1367;DHT22;16877;48.810;9.282;2023-07-29T13:03:20;38.50;42.40
1367;DHT22;16877;48.810;9.282;2023-07-29T13:05:47;38.70;42.30
1367;DHT22;16877;48.810;9.282;2023-07-29T13:08:14;38.70;42.30
1367;DHT22;16877;48.810;9.282;2023-07-29T13:10:43;38.70;41.30
1367;DHT22;16877;48.810;9.282;2023-07-29T13:13:13;39.00;42.10
1367;DHT22;16877;48.810;9.282;2023-07-29T13:15:41;39.20;41.60
1367;DHT22;16877;48.810;9.282;2023-07-29T13:18:09;39.40;41.40
1367;DHT22;16877;48.810;9.282;2023-07-29T13:20:36;39.60;41.20
1367;DHT22;16877;48.810;9.282;2023-07-29T13:23:03;39.60;40.80
1367;DHT22;16877;48.810;9.282;2023-07-29T13:25:32;39.80;41.00
1367;DHT22;16877;48.810;9.282;2023-07-29T13:28:05;39.60;41.00
1367;DHT22;16877;48.810;9.282;2023-07-29T13:30:33;39.50;41.00
1367;DHT22;16877;48.810;9.282;2023-07-29T13:33:00;39.40;40.90
1367;DHT22;16877;48.810;9.282;2023-07-29T13:35:30;39.20;40.80
1367;DHT22;16877;48.810;9.282;2023-07-29T13:38:02;39.00;40.80
1367;DHT22;16877;48.810;9.282;2023-07-29T13:40:29;38.70;41.00
1367;DHT22;16877;48.810;9.282;2023-07-29T13:42:57;38.40;41.20
1367;DHT22;16877;48.810;9.282;2023-07-29T13:45:26;38.10;41.40
1367;DHT22;16877;48.810;9.282;2023-07-29T13:47:54;37.90;41.80
1367;DHT22;16877;48.810;9.282;2023-07-29T13:50:23;37.70;41.80
1367;DHT22;16877;48.810;9.282;2023-07-29T13:52:52;37.50;41.90
1367;DHT22;16877;48.810;9.282;2023-07-29T13:55:19;37.40;42.10
1367;DHT22;16877;48.810;9.282;2023-07-29T13:57:48;37.30;42.10
1367;DHT22;16877;48.810;9.282;2023-07-29T14:00:28;37.20;42.30
1367;DHT22;16877;48.810;9.282;2023-07-29T14:02:55;37.00;42.70
1367;DHT22;16877;48.810;9.282;2023-07-29T14:05:23;36.90;43.10
1367;DHT22;16877;48.810;9.282;2023-07-29T14:07:51;36.80;42.90
1367;DHT22;16877;48.810;9.282;2023-07-29T14:10:18;36.80;43.10
1367;DHT22;16877;48.810;9.282;2023-07-29T14:12:48;36.70;43.30
1367;DHT22;16877;48.810;9.282;2023-07-29T14:15:16;36.60;43.30
1367;DHT22;16877;48.810;9.282;2023-07-29T14:17:45;36.60;43.50
1367;DHT22;16877;48.810;9.282;2023-07-29T14:20:13;36.60;43.40
1367;DHT22;16877;48.810;9.282;2023-07-29T14:22:51;36.50;43.20
1367;DHT22;16877;48.810;9.282;2023-07-29T14:25:18;36.60;43.20
1367;DHT22;16877;48.810;9.282;2023-07-29T14:27:46;36.70;43.20
1367;DHT22;16877;48.810;9.282;2023-07-29T14:30:14;37.00;43.30
1367;DHT22;16877;48.810;9.282;2023-07-29T14:32:41;37.10;43.00
1367;DHT22;16877;48.810;9.282;2023-07-29T14:35:11;36.90;43.00
1367;DHT22;16877;48.810;9.282;2023-07-29T14:37:39;36.70;43.20
1367;DHT22;16877;48.810;9.282;2023-07-29T14:40:17;36.70;43.20
1367;DHT22;16877;48.810;9.282;2023-07-29T14:42:44;36.50;43.10
1367;DHT22;16877;48.810;9.282;2023-07-29T14:45:12;36.30;43.30
1367;DHT22;16877;48.810;9.282;2023-07-29T14:47:39;36.10;43.30
1367;DHT22;16877;48.810;9.282;2023-07-29T14:50:07;35.90;43.50
1367;DHT22;16877;48.810;9.282;2023-07-29T14:52:36;35.80;43.80
1367;DHT22;16877;48.810;9.282;2023-07-29T14:55:04;35.60;43.80
1367;DHT22;16877;48.810;9.282;2023-07-29T14:57:32;35.50;44.00
1367;DHT22;16877;48.810;9.282;2023-07-29T14:59:59;35.40;44.30
1367;DHT22;16877;48.810;9.282;2023-07-29T15:02:27;35.20;44.40
1367;DHT22;16877;48.810;9.282;2023-07-29T15:04:59;35.10;44.70
1367;DHT22;16877;48.810;9.282;2023-07-29T15:07:26;35.00;44.80
1367;DHT22;16877;48.810;9.282;2023-07-29T15:09:55;34.90;44.90
1367;DHT22;16877;48.810;9.282;2023-07-29T15:12:23;34.90;45.10
1367;DHT22;16877;48.810;9.282;2023-07-29T15:14:50;34.80;45.20
1367;DHT22;16877;48.810;9.282;2023-07-29T15:17:18;34.80;45.30
1367;DHT22;16877;48.810;9.282;2023-07-29T15:19:55;34.80;45.40
1367;DHT22;16877;48.810;9.282;2023-07-29T15:22:24;34.90;45.40
1367;DHT22;16877;48.810;9.282;2023-07-29T15:24:51;34.80;45.50
1367;DHT22;16877;48.810;9.282;2023-07-29T15:27:20;34.80;45.60
1367;DHT22;16877;48.810;9.282;2023-07-29T15:29:48;34.90;45.60
1367;DHT22;16877;48.810;9.282;2023-07-29T15:32:15;34.90;45.70
1367;DHT22;16877;48.810;9.282;2023-07-29T15:34:43;34.90;45.80
1367;DHT22;16877;48.810;9.282;2023-07-29T15:37:10;34.90;45.90
1367;DHT22;16877;48.810;9.282;2023-07-29T15:39:37;34.90;45.80
1367;DHT22;16877;48.810;9.282;2023-07-29T15:42:05;35.00;45.90
1367;DHT22;16877;48.810;9.282;2023-07-29T15:44:34;35.10;45.80
1367;DHT22;16877;48.810;9.282;2023-07-29T15:47:03;35.40;45.80
1367;DHT22;16877;48.810;9.282;2023-07-29T15:49:30;35.50;45.80
1367;DHT22;16877;48.810;9.282;2023-07-29T15:52:00;35.50;45.50
1367;DHT22;16877;48.810;9.282;2023-07-29T15:54:27;35.50;45.40
1367;DHT22;16877;48.810;9.282;2023-07-29T15:56:55;35.40;45.40
1367;DHT22;16877;48.810;9.282;2023-07-29T15:59:22;35.30;45.30
1367;DHT22;16877;48.810;9.282;2023-07-29T16:01:53;35.20;45.10
1367;DHT22;16877;48.810;9.282;2023-07-29T16:04:21;35.10;45.20
1367;DHT22;16877;48.810;9.282;2023-07-29T16:06:50;35.00;45.30
1367;DHT22;16877;48.810;9.282;2023-07-29T16:09:27;35.00;45.40
1367;DHT22;16877;48.810;9.282;2023-07-29T16:11:55;34.90;45.50
1367;DHT22;16877;48.810;9.282;2023-07-29T16:14:37;34.90;45.80
1367;DHT22;16877;48.810;9.282;2023-07-29T16:17:06;34.70;45.60
1367;DHT22;16877;48.810;9.282;2023-07-29T16:19:52;34.70;45.80